Terminal Aerodrome Forecast
Issued by NWS

Home | Current Version | Previous Version | Text Only | Print | Product List | Glossary On
Versions: 1 2 3 4 5 6 7 8 9 10 11 12 13 14 15 16 17 18
356
FTUS43 KAPX 270754 AAA
TAFAPN
TAF AMD
KAPN 270754Z 2708/2806 00000KT 5SM BR OVC009
      TEMPO 2708/2712 1/2SM FG VV002
     FM271500 30004KT P6SM OVC005
     FM272000 31006KT P6SM OVC012
     FM280200 33004KT 5SM BR OVC008=

USA.gov is the U.S. government's official web portal to all federal, state and local government web resources and services.